Time;durP1;ratioP1;P1;durP2;ratioP2;P2;SDS_P1;SDS_P2;PMS_P1;PMS_P2;Temp;Humidity;BMP_temperature;BMP_pressure;BME280_temperature;BME280_humidity;BME280_pressure;Samples;Min_cycle;Max_cycle;Signal;HPM_P1;HPM_P2
2022/08/12 00:43:27;;;;;;;12.20;3.17;;;23.70;99.90;;;;;;4182358;28;20207;-93
2022/08/12 00:46:29;;;;;;;10.48;3.13;;;23.70;99.90;;;;;;4167573;28;20161;-93
2022/08/12 00:47:51;;;;;;;7.20;3.20;;;23.80;99.90;;;;;;4183165;28;20279;-95
2022/08/12 00:49:54;;;;;;;12.02;3.33;;;23.80;99.90;;;;;;4167801;28;20191;-96
2022/08/12 00:52:15;;;;;;;12.57;2.70;;;23.80;99.90;;;;;;4182856;28;20160;-94
2022/08/12 00:54:19;;;;;;;11.63;3.45;;;23.80;99.90;;;;;;4167968;28;20268;-93
2022/08/12 00:56:45;;;;;;;9.57;3.17;;;23.80;99.90;;;;;;4184496;28;20168;-94
2022/08/12 00:58:51;;;;;;;5.95;2.80;;;23.80;99.90;;;;;;4185344;28;20159;-94
2022/08/12 01:01:22;;;;;;;11.27;3.20;;;23.80;99.90;;;;;;4183982;28;20152;-93
2022/08/12 01:11:47;;;;;;;9.07;3.17;;;23.70;99.90;;;;;;4199646;28;20191;-95
2022/08/12 01:13:49;;;;;;;9.05;3.22;;;23.60;99.90;;;;;;4166672;28;20197;-96
2022/08/12 01:16:24;;;;;;;8.48;2.97;;;23.70;99.90;;;;;;4167029;28;20153;-92
2022/08/12 01:18:57;;;;;;;7.32;3.10;;;23.70;99.90;;;;;;4182291;28;20187;-93
2022/08/12 01:21:56;;;;;;;6.15;3.25;;;23.70;99.90;;;;;;4185437;28;20263;-94
2022/08/12 01:24:26;;;;;;;8.57;2.75;;;23.80;99.90;;;;;;4167316;28;20244;-95
2022/08/12 01:27:15;;;;;;;8.80;3.00;;;23.70;99.90;;;;;;4178576;28;20196;-94
2022/08/12 01:29:47;;;;;;;16.40;3.72;;;23.80;99.90;;;;;;4183472;28;20215;-93
2022/08/12 01:31:50;;;;;;;7.90;3.00;;;23.70;99.90;;;;;;4183139;28;20199;-94
2022/08/12 01:34:13;;;;;;;11.73;3.30;;;23.60;99.90;;;;;;4183679;28;20200;-91
2022/08/12 01:36:40;;;;;;;9.68;3.75;;;23.60;99.90;;;;;;4182995;28;20192;-96
2022/08/12 01:39:05;;;;;;;10.32;3.83;;;23.40;99.90;;;;;;4180544;28;20193;-95
2022/08/12 01:41:10;;;;;;;8.15;3.15;;;23.40;99.90;;;;;;4165707;28;20157;-95
2022/08/12 01:43:23;;;;;;;11.50;3.40;;;23.30;99.90;;;;;;4199707;28;20206;-95
2022/08/12 01:45:28;;;;;;;4.90;3.05;;;23.30;99.90;;;;;;4184287;28;20256;-95
2022/08/12 01:47:50;;;;;;;8.75;3.20;;;23.20;99.90;;;;;;4150519;28;20240;-95
2022/08/12 01:50:10;;;;;;;8.02;3.15;;;23.20;99.90;;;;;;4184065;28;20164;-94
2022/08/12 01:52:29;;;;;;;11.65;2.80;;;23.20;99.90;;;;;;4165593;28;20161;-96
2022/08/12 01:55:05;;;;;;;6.65;2.90;;;23.10;99.90;;;;;;4169293;28;20221;-91
2022/08/12 01:57:15;;;;;;;5.43;3.30;;;23.10;99.90;;;;;;4198656;22;20576;-93
2022/08/12 01:59:45;;;;;;;6.00;3.40;;;23.10;99.90;;;;;;4183419;28;20303;-94
2022/08/12 02:01:51;;;;;;;7.00;3.30;;;23.10;99.90;;;;;;4183579;28;20176;-93
2022/08/12 02:11:31;;;;;;;7.45;3.05;;;23.00;99.90;;;;;;4183678;28;20206;-92
2022/08/12 02:14:00;;;;;;;7.35;3.30;;;23.00;99.90;;;;;;4183488;28;20196;-92
2022/08/12 02:16:22;;;;;;;8.15;3.35;;;23.00;99.90;;;;;;4183628;28;20231;-92
2022/08/12 02:18:49;;;;;;;8.00;3.17;;;23.00;99.90;;;;;;4166973;28;20188;-94
2022/08/12 02:21:05;;;;;;;5.68;2.92;;;22.90;99.90;;;;;;4167053;28;20278;-94
2022/08/12 02:23:11;;;;;;;7.05;3.42;;;22.90;99.90;;;;;;4167221;28;20235;-93
2022/08/12 02:25:28;;;;;;;10.63;3.42;;;22.90;99.90;;;;;;4183368;28;20648;-93
2022/08/12 02:27:34;;;;;;;8.27;3.35;;;22.80;99.90;;;;;;4167564;28;20176;-93
2022/08/12 02:29:36;;;;;;;23.25;4.03;;;22.60;99.90;;;;;;4167417;28;20180;-92
2022/08/12 02:31:38;;;;;;;8.57;3.45;;;22.50;99.90;;;;;;4166570;28;20172;-93
2022/08/12 02:33:40;;;;;;;8.18;3.22;;;22.50;99.90;;;;;;4166751;28;20206;-93
2022/08/12 02:35:41;;;;;;;5.68;3.28;;;22.40;99.90;;;;;;4166520;28;20363;-93
2022/08/12 02:37:42;;;;;;;9.38;3.20;;;22.40;99.90;;;;;;4166811;28;20652;-94
2022/08/12 02:39:48;;;;;;;12.90;3.25;;;22.20;99.90;;;;;;4166752;28;20176;-93
2022/08/12 02:41:51;;;;;;;8.70;3.25;;;22.20;99.90;;;;;;4166547;28;20262;-93
2022/08/12 02:43:58;;;;;;;9.50;3.60;;;22.20;99.90;;;;;;4166766;28;20224;-94
2022/08/12 02:46:10;;;;;;;6.78;3.22;;;22.30;99.90;;;;;;4183140;28;20175;-93
2022/08/12 02:48:21;;;;;;;8.98;3.50;;;22.20;99.90;;;;;;4183973;28;20667;-93
2022/08/12 02:50:26;;;;;;;7.07;3.40;;;22.10;99.90;;;;;;4166901;28;20251;-92
2022/08/12 02:52:28;;;;;;;5.25;3.45;;;21.90;99.90;;;;;;4166705;28;20183;-94
2022/08/12 02:54:29;;;;;;;10.07;3.60;;;21.80;99.90;;;;;;4183466;28;20176;-93
2022/08/12 02:56:30;;;;;;;12.10;4.40;;;21.70;99.90;;;;;;4166826;28;20659;-93
2022/08/12 02:58:32;;;;;;;10.32;3.55;;;21.70;99.90;;;;;;4166518;28;20175;-95
2022/08/12 03:00:34;;;;;;;12.88;4.10;;;21.60;99.90;;;;;;4166812;28;20184;-93
2022/08/12 03:02:38;;;;;;;5.80;3.55;;;21.60;99.90;;;;;;4183323;28;20263;-93
2022/08/12 03:04:49;;;;;;;9.73;3.58;;;21.60;99.90;;;;;;4166164;28;20184;-93
2022/08/12 03:07:00;;;;;;;12.90;3.88;;;21.60;99.90;;;;;;4182011;28;20270;-92
2022/08/12 03:09:02;;;;;;;7.05;3.72;;;21.50;99.90;;;;;;4182595;28;20215;-93
2022/08/12 03:11:09;;;;;;;10.05;3.80;;;21.60;99.90;;;;;;4166217;28;20179;-93
2022/08/12 03:13:11;;;;;;;6.80;3.60;;;21.70;99.90;;;;;;4166249;28;20596;-92
2022/08/12 03:15:16;;;;;;;13.20;3.58;;;21.50;99.90;;;;;;4182893;28;20171;-93
2022/08/12 03:17:32;;;;;;;7.47;3.50;;;21.60;99.90;;;;;;4166459;28;20172;-95
2022/08/12 03:19:33;;;;;;;6.55;3.75;;;21.60;99.90;;;;;;4182921;28;20175;-94
2022/08/12 03:21:38;;;;;;;10.38;4.38;;;21.40;99.90;;;;;;4165603;28;20242;-95
2022/08/12 03:23:41;;;;;;;7.43;4.90;;;21.40;99.90;;;;;;4166123;28;20607;-94
2022/08/12 03:25:43;;;;;;;8.60;4.60;;;21.30;99.90;;;;;;4165832;28;20172;-92
2022/08/12 03:27:54;;;;;;;10.38;4.20;;;21.10;99.90;;;;;;4182660;28;20171;-94
2022/08/12 03:29:57;;;;;;;9.10;4.38;;;21.00;99.90;;;;;;4166058;28;20182;-94
2022/08/12 03:32:02;;;;;;;6.63;4.63;;;21.00;99.90;;;;;;4165774;28;20164;-95
2022/08/12 03:34:17;;;;;;;9.60;4.10;;;21.10;99.90;;;;;;4165760;28;20196;-94
2022/08/12 03:36:20;;;;;;;8.57;4.28;;;21.10;99.90;;;;;;4165782;28;20165;-95
2022/08/12 03:38:25;;;;;;;8.90;4.32;;;21.20;99.90;;;;;;4165513;28;20652;-94
2022/08/12 04:01:56;;;;;;;8.07;3.65;;;21.80;99.90;;;;;;4181891;28;20258;-95
2022/08/12 04:04:00;;;;;;;8.80;4.35;;;21.70;99.90;;;;;;4165624;28;20184;-94
2022/08/12 04:06:01;;;;;;;8.95;4.10;;;21.70;99.90;;;;;;4165733;28;20183;-95
2022/08/12 04:08:02;;;;;;;8.32;4.38;;;21.70;99.90;;;;;;4182093;28;20548;-94
2022/08/12 04:10:04;;;;;;;8.88;3.55;;;21.70;99.90;;;;;;4181683;28;20175;-93
2022/08/12 04:14:26;;;;;;;11.50;3.92;;;21.70;99.90;;;;;;4181040;28;20236;-94
2022/08/12 04:16:27;;;;;;;11.77;4.18;;;21.70;99.90;;;;;;4181222;28;20571;-95
2022/08/12 04:18:30;;;;;;;6.75;4.30;;;21.70;99.90;;;;;;4164141;28;20164;-95
2022/08/12 04:20:31;;;;;;;8.38;4.38;;;21.60;99.90;;;;;;4165033;28;20172;-94
2022/08/12 04:22:32;;;;;;;7.60;4.10;;;21.50;99.90;;;;;;4180877;28;20175;-94
2022/08/12 04:24:34;;;;;;;12.75;4.15;;;21.40;99.90;;;;;;4164637;28;20207;-95
2022/08/12 04:26:38;;;;;;;10.95;4.00;;;21.40;99.90;;;;;;4181224;28;20708;-95
2022/08/12 04:28:38;;;;;;;13.43;4.43;;;21.30;99.90;;;;;;4165045;28;20724;-95
2022/08/12 04:30:39;;;;;;;13.85;4.60;;;21.20;99.90;;;;;;4181661;28;20171;-95
2022/08/12 04:32:41;;;;;;;14.75;4.28;;;21.00;99.90;;;;;;4164767;28;20192;-93
2022/08/12 04:34:43;;;;;;;8.52;4.50;;;20.90;99.90;;;;;;4165334;28;20620;-94
2022/08/12 04:36:44;;;;;;;6.78;4.13;;;21.00;99.90;;;;;;4165099;28;20178;-95
2022/08/12 04:38:45;;;;;;;13.18;4.80;;;20.90;99.90;;;;;;4164756;28;20172;-94
2022/08/12 04:40:46;;;;;;;17.63;4.72;;;20.80;99.90;;;;;;4164691;28;20164;-94
2022/08/12 04:42:47;;;;;;;13.82;4.63;;;20.80;99.90;;;;;;4181406;28;20200;-92
2022/08/12 04:44:47;;;;;;;11.45;4.68;;;20.70;99.90;;;;;;4181396;28;20203;-93
2022/08/12 04:46:48;;;;;;;13.32;4.90;;;20.70;99.90;;;;;;4164470;28;20640;-95
2022/08/12 04:48:50;;;;;;;9.45;4.45;;;20.70;99.90;;;;;;4181079;28;20211;-95
2022/08/12 04:50:51;;;;;;;15.93;5.25;;;20.70;99.90;;;;;;4164723;28;20596;-93
2022/08/12 04:52:52;;;;;;;22.92;5.25;;;20.60;99.90;;;;;;4164179;28;20208;-95
2022/08/12 04:54:53;;;;;;;18.70;4.63;;;20.60;99.90;;;;;;4181881;28;20676;-93
2022/08/12 04:56:54;;;;;;;25.42;5.70;;;20.50;99.90;;;;;;4164987;28;20191;-93
2022/08/12 04:58:57;;;;;;;27.40;5.45;;;20.40;99.90;;;;;;4177925;28;20672;-92
2022/08/12 05:00:58;;;;;;;18.55;5.10;;;20.40;99.90;;;;;;4171482;28;20176;-94
2022/08/12 05:02:59;;;;;;;24.88;5.65;;;20.30;99.90;;;;;;4164980;28;20196;-93
2022/08/12 05:05:01;;;;;;;13.65;5.13;;;20.30;99.90;;;;;;4180788;28;20176;-93
2022/08/12 05:07:01;;;;;;;11.13;5.07;;;20.30;99.90;;;;;;4180706;28;20717;-94
2022/08/12 05:09:02;;;;;;;18.40;5.07;;;20.30;99.90;;;;;;4164306;28;20213;-95
2022/08/12 05:11:04;;;;;;;15.63;4.68;;;20.30;99.90;;;;;;4180936;28;20203;-94
2022/08/12 05:13:11;;;;;;;25.98;4.97;;;20.30;99.90;;;;;;4164496;28;20188;-93
2022/08/12 05:15:12;;;;;;;13.43;4.90;;;20.30;99.90;;;;;;4181213;28;20167;-93
2022/08/12 05:17:13;;;;;;;18.15;4.78;;;20.20;99.90;;;;;;4164882;28;20164;-94
2022/08/12 05:19:15;;;;;;;14.52;5.28;;;20.20;99.90;;;;;;4181285;28;20186;-93
2022/08/12 05:21:16;;;;;;;14.18;4.97;;;20.20;99.90;;;;;;4164596;28;20211;-93
2022/08/12 05:23:19;;;;;;;17.52;5.32;;;20.20;99.90;;;;;;4181002;28;20195;-92
2022/08/12 05:25:20;;;;;;;14.45;4.90;;;20.20;99.90;;;;;;4164696;28;20226;-92
2022/08/12 05:27:21;;;;;;;16.23;5.30;;;20.20;99.90;;;;;;4164423;28;20183;-92
2022/08/12 05:29:22;;;;;;;13.23;4.78;;;20.20;99.90;;;;;;4164348;28;20204;-94
2022/08/12 05:31:23;;;;;;;14.52;5.18;;;20.20;99.90;;;;;;4181186;28;20690;-93
2022/08/12 05:33:36;;;;;;;20.65;5.10;;;20.20;99.90;;;;;;4180987;28;20206;-93
2022/08/12 05:35:39;;;;;;;18.48;5.30;;;20.30;99.90;;;;;;4180958;28;20175;-93
2022/08/12 05:37:39;;;;;;;14.20;5.47;;;20.40;99.90;;;;;;4164314;28;20244;-94
2022/08/12 05:39:40;;;;;;;19.58;5.43;;;20.50;99.90;;;;;;4164468;28;20175;-94
2022/08/12 05:41:41;;;;;;;15.45;5.32;;;20.60;99.90;;;;;;4164609;28;20564;-93
2022/08/12 05:43:42;;;;;;;18.25;5.97;;;20.60;99.90;;;;;;4164887;28;20195;-93
2022/08/12 05:45:44;;;;;;;24.50;6.10;;;20.70;99.90;;;;;;4164721;28;20263;-94
2022/08/12 05:47:45;;;;;;;13.18;5.63;;;20.80;99.90;;;;;;4181029;28;20563;-92
2022/08/12 05:49:45;;;;;;;27.55;5.60;;;20.80;99.90;;;;;;4164610;28;20181;-93
2022/08/12 05:51:46;;;;;;;12.57;5.63;;;20.80;99.90;;;;;;4181001;28;20262;-94
2022/08/12 05:53:47;;;;;;;15.57;5.35;;;20.90;99.90;;;;;;4164320;28;20215;-94
2022/08/12 05:55:51;;;;;;;14.00;5.53;;;20.90;99.90;;;;;;4164387;28;20168;-94
2022/08/12 05:57:54;;;;;;;14.02;5.35;;;20.90;99.90;;;;;;4164293;28;20216;-93
2022/08/12 05:59:54;;;;;;;11.18;5.03;;;20.80;99.90;;;;;;4164462;28;20229;-93
2022/08/12 06:02:04;;;;;;;17.17;5.15;;;20.80;99.90;;;;;;4164227;28;20216;-93
2022/08/12 06:04:05;;;;;;;20.55;4.88;;;20.70;99.90;;;;;;4180587;28;20209;-93
2022/08/12 06:06:05;;;;;;;14.73;5.43;;;20.70;99.90;;;;;;4164293;28;20215;-92
2022/08/12 06:08:06;;;;;;;19.80;5.75;;;20.70;99.90;;;;;;4164321;28;20556;-92
2022/08/12 06:10:07;;;;;;;11.35;5.13;;;20.70;99.90;;;;;;4164205;28;20601;-92
2022/08/12 06:12:08;;;;;;;17.23;5.07;;;20.70;99.90;;;;;;4164046;28;20184;-93
2022/08/12 06:14:09;;;;;;;13.55;5.97;;;20.70;99.90;;;;;;4164113;28;20196;-93
2022/08/12 06:16:13;;;;;;;11.60;5.72;;;20.80;99.90;;;;;;4164136;28;20665;-94
2022/08/12 06:18:14;;;;;;;14.27;5.65;;;20.90;99.90;;;;;;4164219;28;20184;-92
2022/08/12 06:20:15;;;;;;;18.08;5.72;;;21.00;99.90;;;;;;4180852;28;20167;-94
2022/08/12 06:22:16;;;;;;;17.75;6.00;;;21.10;99.90;;;;;;4180470;28;20266;-93
2022/08/12 06:24:22;;;;;;;13.38;5.57;;;21.20;99.90;;;;;;4164047;28;20188;-92
2022/08/12 06:26:23;;;;;;;14.05;5.18;;;21.30;99.90;;;;;;4164251;28;20735;-92
2022/08/12 06:28:24;;;;;;;13.55;5.63;;;21.30;99.90;;;;;;4180317;28;20298;-94
2022/08/12 06:30:27;;;;;;;12.20;5.95;;;21.40;99.90;;;;;;4164100;28;20188;-94
2022/08/12 06:32:28;;;;;;;15.20;5.30;;;21.60;99.90;;;;;;4164082;28;20226;-93
2022/08/12 06:34:30;;;;;;;13.20;6.13;;;21.70;99.90;;;;;;4164169;28;20160;-94
2022/08/12 06:36:30;;;;;;;11.85;5.20;;;21.90;99.90;;;;;;4164122;28;20211;-93
2022/08/12 06:38:31;;;;;;;11.32;4.97;;;22.00;99.90;;;;;;4163995;28;20168;-93
2022/08/12 06:42:51;;;;;;;12.85;5.22;;;22.10;99.90;;;;;;4183462;28;20221;-94
2022/08/12 06:44:52;;;;;;;15.55;5.90;;;22.10;99.90;;;;;;4166996;28;20203;-93
2022/08/12 06:46:53;;;;;;;29.42;5.47;;;22.50;99.90;;;;;;4166825;28;20176;-93
2022/08/12 06:48:57;;;;;;;17.00;5.80;;;22.70;99.90;;;;;;4167146;28;20211;-93
2022/08/12 06:50:58;;;;;;;14.63;5.60;;;22.90;99.90;;;;;;4166944;28;20234;-94
2022/08/12 06:52:59;;;;;;;18.48;5.55;;;22.90;99.90;;;;;;4166743;28;20681;-94
2022/08/12 06:55:00;;;;;;;14.85;5.55;;;23.00;99.90;;;;;;4167127;28;20644;-95
2022/08/12 06:57:01;;;;;;;15.27;5.47;;;23.20;99.90;;;;;;4166731;28;20245;-94
2022/08/12 06:59:02;;;;;;;15.68;5.40;;;23.10;99.90;;;;;;4166828;28;20236;-94
2022/08/12 07:01:03;;;;;;;24.45;5.93;;;23.40;99.90;;;;;;4183280;28;20285;-94
2022/08/12 07:03:05;;;;;;;13.05;5.85;;;23.60;99.90;;;;;;4183263;28;20191;-94
2022/08/12 07:05:06;;;;;;;19.38;5.47;;;23.50;99.90;;;;;;4183460;28;20204;-94
2022/08/12 07:07:08;;;;;;;17.77;5.18;;;23.60;99.90;;;;;;4166667;28;20180;-93
2022/08/12 07:09:09;;;;;;;13.00;4.85;;;23.70;99.90;;;;;;4166514;28;20199;-92
2022/08/12 07:11:12;;;;;;;10.63;4.95;;;23.40;99.90;;;;;;4167522;28;20198;-93
2022/08/12 07:13:12;;;;;;;16.63;5.43;;;23.70;99.90;;;;;;4166466;28;20703;-93
2022/08/12 07:15:13;;;;;;;9.88;5.20;;;24.10;99.90;;;;;;4182831;28;20191;-94
2022/08/12 07:17:14;;;;;;;16.77;4.57;;;24.20;99.90;;;;;;4182963;28;20636;-93
2022/08/12 07:19:16;;;;;;;10.15;4.53;;;24.70;99.90;;;;;;4166391;28;20183;-94
2022/08/12 07:21:18;;;;;;;12.65;4.65;;;26.00;99.90;;;;;;4183094;28;20172;-94
2022/08/12 07:23:19;;;;;;;16.55;4.55;;;27.30;99.90;;;;;;4166575;28;20560;-93
2022/08/12 07:27:54;;;;;;;11.00;4.07;;;29.30;99.90;;;;;;4166108;28;20179;-94
2022/08/12 07:29:54;;;;;;;18.48;5.22;;;30.40;99.90;;;;;;4169356;28;20180;-94
2022/08/12 07:31:58;;;;;;;14.13;4.15;;;30.60;99.90;;;;;;4189659;28;20171;-93
2022/08/12 07:34:00;;;;;;;12.48;4.43;;;30.70;99.90;;;;;;4171510;28;20286;-92
2022/08/12 07:36:01;;;;;;;18.65;4.63;;;31.00;99.90;;;;;;4166188;28;20641;-94
2022/08/12 07:38:01;;;;;;;12.43;4.13;;;31.70;99.90;;;;;;4166042;28;20272;-93
2022/08/12 07:40:03;;;;;;;14.48;4.20;;;31.90;99.90;;;;;;4182630;28;20640;-93
2022/08/12 07:42:04;;;;;;;16.38;4.38;;;32.10;99.90;;;;;;4166075;28;20187;-92
2022/08/12 07:44:07;;;;;;;21.17;4.03;;;32.20;99.90;;;;;;4165805;28;20245;-91
2022/08/12 07:46:10;;;;;;;10.90;4.28;;;33.00;99.90;;;;;;4165893;28;20211;-92
2022/08/12 07:48:11;;;;;;;7.53;3.88;;;33.10;99.90;;;;;;4182389;28;20695;-92
2022/08/12 07:50:14;;;;;;;14.65;4.20;;;33.50;98.90;;;;;;4166189;28;20187;-94
2022/08/12 07:52:15;;;;;;;13.10;4.10;;;33.70;99.20;;;;;;4165742;28;20177;-92
2022/08/12 07:54:16;;;;;;;13.13;4.05;;;33.90;99.00;;;;;;4166044;28;20226;-92
2022/08/12 07:56:17;;;;;;;11.40;3.78;;;32.80;98.60;;;;;;4166613;28;20164;-93
2022/08/12 07:58:18;;;;;;;14.82;4.10;;;32.70;98.80;;;;;;4182672;28;20171;-93
2022/08/12 08:00:19;;;;;;;13.70;3.75;;;32.90;98.60;;;;;;4165922;28;20726;-93
2022/08/12 08:02:20;;;;;;;15.15;3.60;;;33.10;98.80;;;;;;4165924;28;20176;-95
2022/08/12 08:06:41;;;;;;;14.25;3.67;;;32.00;98.40;;;;;;4182682;28;20168;-92
2022/08/12 08:08:42;;;;;;;9.15;3.50;;;32.30;99.00;;;;;;4182266;28;20222;-93
2022/08/12 08:10:43;;;;;;;12.05;3.65;;;32.80;98.80;;;;;;4165621;28;20164;-91
2022/08/12 08:12:53;;;;;;;16.50;3.70;;;32.90;98.50;;;;;;4165701;28;20196;-94
2022/08/12 08:14:54;;;;;;;12.57;3.90;;;32.60;98.00;;;;;;4181945;28;20176;-92
2022/08/12 08:16:57;;;;;;;13.02;3.60;;;32.40;97.90;;;;;;4165649;28;20184;-93
2022/08/12 08:18:58;;;;;;;15.57;3.60;;;32.60;98.70;;;;;;4182144;28;20256;-92
2022/08/12 08:20:59;;;;;;;9.50;3.50;;;33.20;97.20;;;;;;4166072;28;20270;-91
2022/08/12 08:23:06;;;;;;;11.43;3.53;;;33.20;97.50;;;;;;4181668;28;20201;-91
2022/08/12 08:25:07;;;;;;;15.23;4.07;;;33.10;97.50;;;;;;4165998;28;20187;-94
2022/08/12 08:27:09;;;;;;;14.45;3.55;;;32.90;97.30;;;;;;4165837;28;20160;-93
2022/08/12 08:29:11;;;;;;;12.80;3.72;;;33.00;97.80;;;;;;4181837;28;20226;-92
2022/08/12 08:31:13;;;;;;;16.30;3.45;;;33.50;97.40;;;;;;4165449;28;20171;-94
2022/08/12 08:33:14;;;;;;;12.20;3.80;;;34.10;96.40;;;;;;4182099;28;20195;-92
2022/08/12 08:35:15;;;;;;;12.15;3.17;;;34.60;96.10;;;;;;4184896;28;20170;-92
2022/08/12 08:37:18;;;;;;;10.48;3.65;;;34.30;95.70;;;;;;4165669;28;20207;-92
2022/08/12 08:39:26;;;;;;;8.02;3.10;;;33.70;95.80;;;;;;4165634;28;20259;-92
2022/08/12 08:43:46;;;;;;;14.20;2.97;;;33.60;96.60;;;;;;4181575;28;20199;-91
2022/08/12 08:45:47;;;;;;;12.60;3.90;;;33.70;96.60;;;;;;4182096;28;20274;-94
2022/08/12 08:47:48;;;;;;;13.10;3.60;;;34.60;96.00;;;;;;4165585;28;20187;-96
2022/08/12 08:49:49;;;;;;;12.50;3.40;;;35.00;96.50;;;;;;4165309;28;20216;-93
2022/08/12 08:51:50;;;;;;;16.92;3.97;;;34.60;96.40;;;;;;4165137;28;20658;-93
2022/08/12 08:53:52;;;;;;;19.25;3.88;;;34.60;96.40;;;;;;4181465;28;20193;-92
2022/08/12 08:55:53;;;;;;;11.15;3.60;;;34.20;96.50;;;;;;4181671;28;20206;-91
2022/08/12 08:57:54;;;;;;;13.30;3.50;;;34.60;97.40;;;;;;4182005;28;20232;-94
2022/08/12 08:59:54;;;;;;;8.70;3.63;;;35.30;97.20;;;;;;4164925;28;20196;-91
2022/08/12 09:01:56;;;;;;;21.35;4.43;;;34.70;97.20;;;;;;4165159;28;20176;-91
2022/08/12 09:03:56;;;;;;;12.75;3.65;;;34.50;97.20;;;;;;4181011;28;20231;-91
2022/08/12 09:05:57;;;;;;;10.25;3.85;;;34.90;97.70;;;;;;4165503;28;20191;-92
2022/08/12 09:08:01;;;;;;;15.48;3.92;;;34.70;97.70;;;;;;4181693;28;20179;-94
2022/08/12 09:10:05;;;;;;;14.45;3.70;;;34.60;97.30;;;;;;4165601;28;20544;-93
2022/08/12 09:14:25;;;;;;;8.93;3.72;;;34.00;96.10;;;;;;4181727;28;20179;-94
2022/08/12 09:16:26;;;;;;;10.55;3.85;;;33.60;97.00;;;;;;4165318;28;20178;-94
2022/08/12 09:18:26;;;;;;;11.68;2.83;;;33.80;97.00;;;;;;4165754;28;20506;-92
2022/08/12 09:20:29;;;;;;;8.00;3.15;;;34.10;96.10;;;;;;4181350;28;20254;-92
2022/08/12 09:22:30;;;;;;;14.23;3.55;;;33.70;96.40;;;;;;4165716;28;20183;-91
2022/08/12 09:24:31;;;;;;;8.57;2.95;;;33.60;96.90;;;;;;4181647;28;20182;-94
2022/08/12 09:26:33;;;;;;;12.95;3.38;;;33.20;97.40;;;;;;4165155;28;20172;-93
2022/08/12 09:28:35;;;;;;;10.70;3.47;;;33.30;97.00;;;;;;4165198;28;20696;-92
2022/08/12 09:30:44;;;;;;;4.85;2.78;;;33.30;97.00;;;;;;4165052;28;20176;-94
2022/08/12 09:32:49;;;;;;;10.93;3.47;;;33.30;96.50;;;;;;4181211;28;20195;-93
2022/08/12 09:34:50;;;;;;;10.10;3.05;;;33.30;96.80;;;;;;4181300;28;20214;-93
2022/08/12 09:36:50;;;;;;;12.35;2.92;;;33.70;96.40;;;;;;4180936;28;20180;-93
2022/08/12 09:38:51;;;;;;;6.32;2.80;;;33.30;95.80;;;;;;4164701;28;20226;-94
2022/08/12 09:40:52;;;;;;;8.73;2.50;;;32.90;96.70;;;;;;4181424;28;20556;-94
2022/08/12 09:45:21;;;;;;;9.38;2.70;;;33.30;96.10;;;;;;4180900;28;20249;-91
2022/08/12 09:47:27;;;;;;;7.07;2.58;;;33.30;95.40;;;;;;4164156;28;20257;-93
2022/08/12 09:49:33;;;;;;;10.10;2.60;;;33.30;96.10;;;;;;4165053;28;20746;-94
2022/08/12 09:51:35;;;;;;;11.18;2.88;;;33.30;95.30;;;;;;4165540;28;20168;-95
2022/08/12 09:53:36;;;;;;;9.95;2.80;;;33.20;95.60;;;;;;4165371;28;20200;-92
2022/08/12 09:55:41;;;;;;;6.70;2.70;;;33.10;96.10;;;;;;4164627;28;20569;-94
2022/08/12 09:57:42;;;;;;;10.57;2.83;;;33.40;95.70;;;;;;4182940;28;20213;-96
2022/08/12 09:59:43;;;;;;;8.85;2.80;;;33.30;95.50;;;;;;4165496;28;20188;-95
2022/08/12 10:01:44;;;;;;;11.00;2.85;;;33.20;95.00;;;;;;4165633;28;20254;-94
2022/08/12 10:03:45;;;;;;;7.47;2.90;;;33.50;95.40;;;;;;4164851;28;20261;-91
2022/08/12 10:05:47;;;;;;;6.60;3.00;;;33.90;95.40;;;;;;4164585;28;20606;-92
2022/08/12 10:07:48;;;;;;;6.38;2.67;;;33.70;95.10;;;;;;4164473;28;20664;-91
2022/08/12 10:09:49;;;;;;;7.07;2.60;;;33.20;95.00;;;;;;4164251;28;20303;-93
2022/08/12 10:14:09;;;;;;;9.48;2.78;;;32.90;95.40;;;;;;4180812;28;20264;-94
2022/08/12 10:16:17;;;;;;;10.35;2.60;;;33.20;95.40;;;;;;4167074;28;20522;-94
2022/08/12 10:18:18;;;;;;;13.25;2.50;;;33.30;94.50;;;;;;4168045;28;20194;-94
2022/08/12 10:20:19;;;;;;;6.35;2.55;;;33.40;95.30;;;;;;4184860;28;20258;-94
2022/08/12 10:22:20;;;;;;;6.57;2.33;;;33.30;94.10;;;;;;4167701;28;20175;-94
2022/08/12 10:24:22;;;;;;;7.13;2.22;;;33.00;94.20;;;;;;4167469;28;20192;-95
2022/08/12 10:31:02;;;;;;;10.23;2.70;;;32.40;94.10;;;;;;4184011;28;20170;-93
2022/08/12 10:33:04;;;;;;;8.50;2.40;;;32.00;94.90;;;;;;4166911;28;20200;-94
2022/08/12 10:35:05;;;;;;;19.02;2.45;;;31.80;95.00;;;;;;4167225;28;20723;-92
2022/08/12 10:37:06;;;;;;;9.88;2.15;;;31.70;93.80;;;;;;4166935;28;20221;-92
2022/08/12 10:39:10;;;;;;;7.30;2.28;;;31.50;93.90;;;;;;4183712;28;20179;-94
2022/08/12 10:43:42;;;;;;;8.98;2.10;;;31.40;94.10;;;;;;4183729;28;20199;-94
2022/08/12 10:45:47;;;;;;;10.63;2.33;;;31.40;94.40;;;;;;4167021;28;20172;-94
2022/08/12 10:47:51;;;;;;;3.35;2.08;;;31.50;94.30;;;;;;4167005;28;20267;-95
2022/08/12 10:49:53;;;;;;;8.00;2.13;;;31.50;93.70;;;;;;4166917;28;20279;-94
2022/08/12 10:51:54;;;;;;;6.55;2.00;;;31.70;94.20;;;;;;4166953;28;20684;-94
2022/08/12 10:53:55;;;;;;;6.75;2.63;;;31.80;94.30;;;;;;4183489;28;20191;-93
2022/08/12 10:55:56;;;;;;;8.07;2.33;;;32.10;94.60;;;;;;4183525;28;20259;-95
2022/08/12 10:57:57;;;;;;;4.13;1.92;;;32.10;94.80;;;;;;4167114;28;20683;-94
2022/08/12 10:59:58;;;;;;;7.00;2.65;;;31.50;93.50;;;;;;4166692;28;20187;-94
2022/08/12 11:02:00;;;;;;;5.95;2.17;;;31.40;94.00;;;;;;4166732;28;20175;-92
2022/08/12 11:04:02;;;;;;;11.57;2.40;;;31.50;93.40;;;;;;4166704;28;20204;-95
2022/08/12 11:06:05;;;;;;;12.18;2.33;;;31.80;94.50;;;;;;4183312;28;20168;-94
2022/08/12 11:08:07;;;;;;;6.13;2.30;;;32.00;94.20;;;;;;4166599;28;20179;-94
2022/08/12 11:10:08;;;;;;;10.05;2.10;;;32.10;94.10;;;;;;4183311;28;20183;-95
2022/08/12 11:12:08;;;;;;;5.85;2.00;;;32.10;94.30;;;;;;4166692;28;20256;-94
2022/08/12 11:14:09;;;;;;;8.95;2.25;;;32.00;93.60;;;;;;4166734;28;20200;-95
2022/08/12 11:16:10;;;;;;;6.45;1.90;;;32.10;93.80;;;;;;4166878;28;20172;-94
2022/08/12 11:18:12;;;;;;;7.90;2.40;;;32.10;93.90;;;;;;4166701;28;20172;-95
2022/08/12 11:20:12;;;;;;;9.88;2.45;;;32.00;94.40;;;;;;4183277;28;20671;-93
2022/08/12 11:22:13;;;;;;;6.35;1.92;;;32.10;94.70;;;;;;4166790;28;20174;-93
2022/08/12 11:24:14;;;;;;;4.28;2.33;;;32.00;94.40;;;;;;4166507;28;20192;-94
2022/08/12 11:26:15;;;;;;;5.93;2.28;;;32.00;94.10;;;;;;4182690;28;20525;-95
2022/08/12 11:28:15;;;;;;;10.05;2.50;;;32.00;94.10;;;;;;4166220;28;20192;-90
2022/08/12 11:30:16;;;;;;;6.53;2.38;;;32.10;94.20;;;;;;4166527;28;20172;-91
2022/08/12 11:32:17;;;;;;;7.63;2.35;;;32.00;93.90;;;;;;4183026;28;20221;-93
2022/08/12 11:34:18;;;;;;;8.02;2.00;;;31.90;93.90;;;;;;4166691;28;20192;-93
2022/08/12 11:36:19;;;;;;;8.40;2.10;;;31.90;94.80;;;;;;4166365;28;20667;-95
2022/08/12 11:38:20;;;;;;;6.22;2.30;;;31.70;93.40;;;;;;4166348;28;20172;-94
2022/08/12 11:40:21;;;;;;;5.43;1.92;;;31.80;93.80;;;;;;4166791;28;20185;-95
2022/08/12 11:42:21;;;;;;;13.25;2.50;;;31.80;93.00;;;;;;4172569;28;20201;-94
2022/08/12 11:44:22;;;;;;;17.67;2.38;;;31.70;93.40;;;;;;4172321;28;20192;-93
2022/08/12 11:46:23;;;;;;;12.35;2.22;;;31.80;93.20;;;;;;4169135;28;20191;-93
2022/08/12 11:48:24;;;;;;;7.90;2.05;;;32.00;92.60;;;;;;4167797;28;20692;-94
2022/08/12 11:50:25;;;;;;;5.70;2.45;;;31.90;92.50;;;;;;4166179;28;20266;-94
2022/08/12 11:52:26;;;;;;;5.80;1.73;;;31.90;92.40;;;;;;4166117;28;20664;-93
2022/08/12 11:54:26;;;;;;;4.30;2.20;;;32.10;92.30;;;;;;4182940;28;20171;-93
2022/08/12 11:56:28;;;;;;;6.10;2.03;;;32.20;92.70;;;;;;4165970;28;20200;-94
2022/08/12 11:58:29;;;;;;;3.50;1.73;;;32.30;92.60;;;;;;4166145;28;20191;-94
2022/08/12 12:00:29;;;;;;;8.48;1.85;;;32.30;92.20;;;;;;4165746;28;20208;-95
2022/08/12 12:02:30;;;;;;;4.72;1.98;;;32.30;92.30;;;;;;4165884;28;20176;-94
2022/08/12 12:04:31;;;;;;;9.23;1.90;;;32.30;91.70;;;;;;4182111;28;20179;-95
2022/08/12 12:06:32;;;;;;;4.43;1.85;;;32.30;91.90;;;;;;4165769;28;20199;-97
2022/08/12 12:08:32;;;;;;;6.50;1.77;;;32.30;91.40;;;;;;4165475;28;20207;-92
2022/08/12 12:10:33;;;;;;;6.15;1.92;;;32.30;91.90;;;;;;4165795;28;20259;-94
2022/08/12 12:12:34;;;;;;;7.55;1.83;;;32.40;92.10;;;;;;4165817;28;20250;-94
2022/08/12 12:14:35;;;;;;;3.72;1.55;;;32.10;90.70;;;;;;4182183;28;20210;-93
2022/08/12 12:16:37;;;;;;;2.80;1.65;;;32.30;91.00;;;;;;4182439;28;20180;-93
2022/08/12 12:18:38;;;;;;;4.35;1.80;;;32.40;91.50;;;;;;4165847;28;20199;-94
2022/08/12 12:20:39;;;;;;;9.43;2.05;;;32.60;90.60;;;;;;4165577;28;20203;-92
2022/08/12 12:22:40;;;;;;;10.57;2.05;;;32.70;90.60;;;;;;4165665;28;20180;-95
2022/08/12 12:24:45;;;;;;;5.97;1.90;;;32.70;91.30;;;;;;4182127;28;20172;-95
2022/08/12 12:26:45;;;;;;;4.85;2.13;;;32.60;91.10;;;;;;4165784;28;20176;-93